Overview Statistics Trail Chart Weather Telemetry Raw packets
 

This is the latest recevied weather packets stored in our database for station/object LU3GHF-13. If no packets are shown the sender has not sent any weather packets the latest 10 day(s).

<< 26 27 28 29 30 31 32 >>
Time Temp. Humidity Pressure Rain* Wind** Luminosity Snow
1788214614 21.11° C 91% 1006.1 hPa - - - -
1788213955 21.11° C 91% 1006.1 hPa - - - -
1788213301 21.11° C 92% 1005.7 hPa - - - -
1788212658 21.11° C 93% 1005.7 hPa - - - -
1788212026 21.11° C 93% 1005.6 hPa - - - -
1788211417 21.67° C 92% 1005.3 hPa - - - -
1788210776 21.11° C 91% 1005.1 hPa - - - -
1788210156 21.11° C 92% 1004.9 hPa - - - -
1788209523 21.67° C 93% 1004.7 hPa - - - -
1788208873 22.22° C 86% 1004.5 hPa - - - -
1788208237 22.78° C 84% 1004.5 hPa - - - -
1788207632 23.33° C 83% 1004.3 hPa - - - -
1788207014 22.78° C 84% 1004.1 hPa - - - -
1788206394 22.78° C 86% 1004 hPa - - - -
1788205786 22.78° C 85% 1003.8 hPa - - - -
1788205148 22.78° C 83% 1003.4 hPa - - - -
1788204528 23.33° C 82% 1003.4 hPa - - - -
1788203916 25.56° C 75% 1002.9 hPa - - - -
1788203278 22.78° C 83% 1003 hPa - - - -
1788202651 23.33° C 84% 1003 hPa - - - -
1788201994 23.33° C 82% 1002.8 hPa - - - -
1788201349 25° C 76% 1002.6 hPa - - - -
1788200708 26.11° C 74% 1002.6 hPa - - - -
1788200049 25° C 78% 1002.8 hPa - - - -
1788199401 23.33° C 83% 1002.8 hPa - - - -

* Rain since midnight (hover to see other rain measurements)
** Current wind speed in m/s (hover to see current wind gust speed)